sensor_id;sensor_type;location;lat;lon;timestamp;temperature;humidity
17715;DHT22;8977;50.902;4.314;2024-01-10T00:01:01;2.40;99.70
17715;DHT22;8977;50.902;4.314;2024-01-10T00:03:28;2.40;99.80
17715;DHT22;8977;50.902;4.314;2024-01-10T00:05:55;2.40;99.90
17715;DHT22;8977;50.902;4.314;2024-01-10T00:08:22;2.40;99.80
17715;DHT22;8977;50.902;4.314;2024-01-10T00:10:51;2.30;99.80
17715;DHT22;8977;50.902;4.314;2024-01-10T00:13:19;2.40;99.90
17715;DHT22;8977;50.902;4.314;2024-01-10T00:15:47;2.40;99.80
17715;DHT22;8977;50.902;4.314;2024-01-10T00:18:14;2.40;99.90
17715;DHT22;8977;50.902;4.314;2024-01-10T00:20:40;2.40;99.80
17715;DHT22;8977;50.902;4.314;2024-01-10T00:23:07;2.40;99.80
17715;DHT22;8977;50.902;4.314;2024-01-10T00:25:34;2.30;99.90
17715;DHT22;8977;50.902;4.314;2024-01-10T00:28:02;2.30;99.90
17715;DHT22;8977;50.902;4.314;2024-01-10T00:30:29;2.30;99.90
17715;DHT22;8977;50.902;4.314;2024-01-10T00:32:56;2.30;99.90
17715;DHT22;8977;50.902;4.314;2024-01-10T00:35:23;2.40;99.90
17715;DHT22;8977;50.902;4.314;2024-01-10T00:37:50;2.40;99.90
17715;DHT22;8977;50.902;4.314;2024-01-10T00:40:17;2.30;99.90
17715;DHT22;8977;50.902;4.314;2024-01-10T00:42:44;2.30;99.90
17715;DHT22;8977;50.902;4.314;2024-01-10T00:45:13;2.30;99.90
17715;DHT22;8977;50.902;4.314;2024-01-10T00:47:40;2.10;99.90
17715;DHT22;8977;50.902;4.314;2024-01-10T00:50:07;2.10;99.90
17715;DHT22;8977;50.902;4.314;2024-01-10T00:52:35;2.10;99.90
17715;DHT22;8977;50.902;4.314;2024-01-10T00:55:02;2.10;99.90
17715;DHT22;8977;50.902;4.314;2024-01-10T00:57:29;2.00;99.90
17715;DHT22;8977;50.902;4.314;2024-01-10T00:59:56;2.00;99.90
17715;DHT22;8977;50.902;4.314;2024-01-10T01:02:25;2.00;99.90
17715;DHT22;8977;50.902;4.314;2024-01-10T01:04:52;2.00;99.90
17715;DHT22;8977;50.902;4.314;2024-01-10T01:07:19;2.00;99.90
17715;DHT22;8977;50.902;4.314;2024-01-10T01:09:46;2.00;99.90
17715;DHT22;8977;50.902;4.314;2024-01-10T01:12:12;2.00;99.90
17715;DHT22;8977;50.902;4.314;2024-01-10T01:14:39;2.00;99.90
17715;DHT22;8977;50.902;4.314;2024-01-10T01:17:06;2.10;99.90
17715;DHT22;8977;50.902;4.314;2024-01-10T01:19:35;2.10;99.90
17715;DHT22;8977;50.902;4.314;2024-01-10T01:22:02;2.00;99.90
17715;DHT22;8977;50.902;4.314;2024-01-10T01:24:29;2.00;99.90
17715;DHT22;8977;50.902;4.314;2024-01-10T01:26:56;2.00;99.90
17715;DHT22;8977;50.902;4.314;2024-01-10T01:29:24;2.00;99.90
17715;DHT22;8977;50.902;4.314;2024-01-10T01:31:51;2.00;99.90
17715;DHT22;8977;50.902;4.314;2024-01-10T01:34:18;2.00;99.90
17715;DHT22;8977;50.902;4.314;2024-01-10T01:36:48;2.00;99.90
17715;DHT22;8977;50.902;4.314;2024-01-10T01:39:16;2.00;99.90
17715;DHT22;8977;50.902;4.314;2024-01-10T01:41:43;1.90;99.90
17715;DHT22;8977;50.902;4.314;2024-01-10T01:44:10;1.90;99.90
17715;DHT22;8977;50.902;4.314;2024-01-10T01:46:37;1.90;99.90
17715;DHT22;8977;50.902;4.314;2024-01-10T01:49:05;1.80;99.90
17715;DHT22;8977;50.902;4.314;2024-01-10T01:51:33;1.80;99.90
17715;DHT22;8977;50.902;4.314;2024-01-10T01:54:07;1.80;99.90
17715;DHT22;8977;50.902;4.314;2024-01-10T01:56:36;1.90;99.90
17715;DHT22;8977;50.902;4.314;2024-01-10T01:59:04;1.90;99.90
17715;DHT22;8977;50.902;4.314;2024-01-10T02:01:31;1.80;99.90
17715;DHT22;8977;50.902;4.314;2024-01-10T02:03:59;1.80;99.90
17715;DHT22;8977;50.902;4.314;2024-01-10T02:06:27;1.80;99.90
17715;DHT22;8977;50.902;4.314;2024-01-10T02:08:55;1.80;99.90
17715;DHT22;8977;50.902;4.314;2024-01-10T02:11:24;1.80;99.90
17715;DHT22;8977;50.902;4.314;2024-01-10T02:13:51;1.80;99.90
17715;DHT22;8977;50.902;4.314;2024-01-10T02:16:20;1.80;99.90
17715;DHT22;8977;50.902;4.314;2024-01-10T02:18:48;1.80;99.90
17715;DHT22;8977;50.902;4.314;2024-01-10T02:21:15;1.80;99.90
17715;DHT22;8977;50.902;4.314;2024-01-10T02:23:42;1.80;99.90
17715;DHT22;8977;50.902;4.314;2024-01-10T02:26:11;1.70;99.90
17715;DHT22;8977;50.902;4.314;2024-01-10T02:28:38;1.80;99.90
17715;DHT22;8977;50.902;4.314;2024-01-10T02:31:05;1.80;99.90
17715;DHT22;8977;50.902;4.314;2024-01-10T02:33:32;1.60;99.90
17715;DHT22;8977;50.902;4.314;2024-01-10T02:35:59;1.60;99.90
17715;DHT22;8977;50.902;4.314;2024-01-10T02:38:26;1.60;99.90
17715;DHT22;8977;50.902;4.314;2024-01-10T02:40:54;1.50;99.90
17715;DHT22;8977;50.902;4.314;2024-01-10T02:43:23;1.60;99.90
17715;DHT22;8977;50.902;4.314;2024-01-10T02:45:50;1.60;99.90
17715;DHT22;8977;50.902;4.314;2024-01-10T02:48:17;1.70;99.90
17715;DHT22;8977;50.902;4.314;2024-01-10T02:50:44;1.70;99.90
17715;DHT22;8977;50.902;4.314;2024-01-10T02:53:11;1.60;99.90
17715;DHT22;8977;50.902;4.314;2024-01-10T02:55:39;1.60;99.90
17715;DHT22;8977;50.902;4.314;2024-01-10T02:58:06;1.60;99.90
17715;DHT22;8977;50.902;4.314;2024-01-10T03:00:34;1.60;99.90
17715;DHT22;8977;50.902;4.314;2024-01-10T03:03:01;1.60;99.90
17715;DHT22;8977;50.902;4.314;2024-01-10T03:05:28;1.50;99.90
17715;DHT22;8977;50.902;4.314;2024-01-10T03:07:55;1.60;99.90
17715;DHT22;8977;50.902;4.314;2024-01-10T03:10:22;1.60;99.90
17715;DHT22;8977;50.902;4.314;2024-01-10T03:12:49;1.60;99.90
17715;DHT22;8977;50.902;4.314;2024-01-10T03:15:15;1.50;99.90
17715;DHT22;8977;50.902;4.314;2024-01-10T03:17:44;1.60;99.90
17715;DHT22;8977;50.902;4.314;2024-01-10T03:20:11;1.50;99.90
17715;DHT22;8977;50.902;4.314;2024-01-10T03:22:38;1.50;99.90
17715;DHT22;8977;50.902;4.314;2024-01-10T03:25:06;1.50;99.90
17715;DHT22;8977;50.902;4.314;2024-01-10T03:27:33;1.50;99.90
17715;DHT22;8977;50.902;4.314;2024-01-10T03:29:59;1.50;99.90
17715;DHT22;8977;50.902;4.314;2024-01-10T03:32:26;1.50;99.90
17715;DHT22;8977;50.902;4.314;2024-01-10T03:34:56;1.50;99.90
17715;DHT22;8977;50.902;4.314;2024-01-10T03:37:24;1.50;99.90
17715;DHT22;8977;50.902;4.314;2024-01-10T03:39:51;1.50;99.90
17715;DHT22;8977;50.902;4.314;2024-01-10T03:42:18;1.50;99.90
17715;DHT22;8977;50.902;4.314;2024-01-10T03:44:45;1.60;99.90
17715;DHT22;8977;50.902;4.314;2024-01-10T03:47:12;1.60;99.90
17715;DHT22;8977;50.902;4.314;2024-01-10T03:49:39;1.50;99.90
17715;DHT22;8977;50.902;4.314;2024-01-10T03:52:07;1.50;99.90
17715;DHT22;8977;50.902;4.314;2024-01-10T03:54:34;1.50;99.90
17715;DHT22;8977;50.902;4.314;2024-01-10T03:57:02;1.50;99.90
17715;DHT22;8977;50.902;4.314;2024-01-10T03:59:30;1.40;99.90
17715;DHT22;8977;50.902;4.314;2024-01-10T04:01:57;1.50;99.90
17715;DHT22;8977;50.902;4.314;2024-01-10T04:04:26;1.50;99.90
17715;DHT22;8977;50.902;4.314;2024-01-10T04:06:52;1.40;99.90
17715;DHT22;8977;50.902;4.314;2024-01-10T04:09:21;1.40;99.90
17715;DHT22;8977;50.902;4.314;2024-01-10T04:11:48;1.40;99.90
17715;DHT22;8977;50.902;4.314;2024-01-10T04:14:15;1.30;99.90
17715;DHT22;8977;50.902;4.314;2024-01-10T04:16:42;1.40;99.90
17715;DHT22;8977;50.902;4.314;2024-01-10T04:19:09;1.40;99.90
17715;DHT22;8977;50.902;4.314;2024-01-10T04:21:36;1.30;99.90
17715;DHT22;8977;50.902;4.314;2024-01-10T04:24:04;1.40;99.90
17715;DHT22;8977;50.902;4.314;2024-01-10T04:26:33;1.30;99.90
17715;DHT22;8977;50.902;4.314;2024-01-10T04:29:00;1.40;99.90
17715;DHT22;8977;50.902;4.314;2024-01-10T04:31:27;1.40;99.90
17715;DHT22;8977;50.902;4.314;2024-01-10T04:33:52;1.30;99.90
17715;DHT22;8977;50.902;4.314;2024-01-10T04:36:19;1.30;99.90
17715;DHT22;8977;50.902;4.314;2024-01-10T04:38:46;1.30;99.90
17715;DHT22;8977;50.902;4.314;2024-01-10T04:41:13;1.30;99.90
17715;DHT22;8977;50.902;4.314;2024-01-10T04:43:42;1.30;99.90
17715;DHT22;8977;50.902;4.314;2024-01-10T04:46:09;1.30;99.90
17715;DHT22;8977;50.902;4.314;2024-01-10T04:48:36;1.10;99.90
17715;DHT22;8977;50.902;4.314;2024-01-10T04:51:03;1.10;99.90
17715;DHT22;8977;50.902;4.314;2024-01-10T04:53:30;1.20;99.90
17715;DHT22;8977;50.902;4.314;2024-01-10T04:55:57;1.20;99.90
17715;DHT22;8977;50.902;4.314;2024-01-10T04:58:24;1.20;99.90
17715;DHT22;8977;50.902;4.314;2024-01-10T05:00:52;1.10;99.90
17715;DHT22;8977;50.902;4.314;2024-01-10T05:03:19;1.10;99.90
17715;DHT22;8977;50.902;4.314;2024-01-10T05:05:46;1.20;99.90
17715;DHT22;8977;50.902;4.314;2024-01-10T05:08:13;1.10;99.90
17715;DHT22;8977;50.902;4.314;2024-01-10T05:10:40;1.20;99.90
17715;DHT22;8977;50.902;4.314;2024-01-10T05:13:07;1.20;99.90
17715;DHT22;8977;50.902;4.314;2024-01-10T05:15:34;1.10;99.90
17715;DHT22;8977;50.902;4.314;2024-01-10T05:18:02;1.10;99.90
17715;DHT22;8977;50.902;4.314;2024-01-10T05:20:29;1.20;99.90
17715;DHT22;8977;50.902;4.314;2024-01-10T05:22:57;1.20;99.90
17715;DHT22;8977;50.902;4.314;2024-01-10T05:25:24;1.20;99.90
17715;DHT22;8977;50.902;4.314;2024-01-10T05:27:53;1.20;99.90
17715;DHT22;8977;50.902;4.314;2024-01-10T05:30:19;1.20;99.90
17715;DHT22;8977;50.902;4.314;2024-01-10T05:32:46;1.20;99.90
17715;DHT22;8977;50.902;4.314;2024-01-10T05:35:15;1.20;99.90
17715;DHT22;8977;50.902;4.314;2024-01-10T05:37:42;1.10;99.90
17715;DHT22;8977;50.902;4.314;2024-01-10T05:40:10;1.20;99.90
17715;DHT22;8977;50.902;4.314;2024-01-10T05:42:37;1.10;99.90
17715;DHT22;8977;50.902;4.314;2024-01-10T05:45:04;1.10;99.90
17715;DHT22;8977;50.902;4.314;2024-01-10T05:47:31;1.10;99.90
17715;DHT22;8977;50.902;4.314;2024-01-10T05:49:59;1.20;99.90
17715;DHT22;8977;50.902;4.314;2024-01-10T05:52:30;1.10;99.90
17715;DHT22;8977;50.902;4.314;2024-01-10T05:54:57;1.00;99.90
17715;DHT22;8977;50.902;4.314;2024-01-10T05:57:24;0.90;99.90
17715;DHT22;8977;50.902;4.314;2024-01-10T05:59:51;1.00;99.90
17715;DHT22;8977;50.902;4.314;2024-01-10T06:02:21;1.00;99.90
17715;DHT22;8977;50.902;4.314;2024-01-10T06:04:48;1.20;99.90
17715;DHT22;8977;50.902;4.314;2024-01-10T06:07:15;1.10;99.90
17715;DHT22;8977;50.902;4.314;2024-01-10T06:09:43;1.20;99.90
17715;DHT22;8977;50.902;4.314;2024-01-10T06:12:11;1.10;99.90
17715;DHT22;8977;50.902;4.314;2024-01-10T06:14:39;1.20;99.90
17715;DHT22;8977;50.902;4.314;2024-01-10T06:17:06;1.10;99.90
17715;DHT22;8977;50.902;4.314;2024-01-10T06:19:33;1.00;99.90
17715;DHT22;8977;50.902;4.314;2024-01-10T06:22:00;0.90;99.90
17715;DHT22;8977;50.902;4.314;2024-01-10T06:24:27;1.00;99.90
17715;DHT22;8977;50.902;4.314;2024-01-10T06:26:55;1.00;99.90
17715;DHT22;8977;50.902;4.314;2024-01-10T06:29:22;1.20;99.90
17715;DHT22;8977;50.902;4.314;2024-01-10T06:31:49;1.20;99.90
17715;DHT22;8977;50.902;4.314;2024-01-10T06:34:16;1.10;99.90
17715;DHT22;8977;50.902;4.314;2024-01-10T06:36:43;1.00;99.90
17715;DHT22;8977;50.902;4.314;2024-01-10T06:39:10;1.10;99.90
17715;DHT22;8977;50.902;4.314;2024-01-10T06:41:39;1.20;99.90
17715;DHT22;8977;50.902;4.314;2024-01-10T06:44:07;1.30;99.90
17715;DHT22;8977;50.902;4.314;2024-01-10T06:46:34;1.20;99.90
17715;DHT22;8977;50.902;4.314;2024-01-10T06:49:01;1.30;99.90
17715;DHT22;8977;50.902;4.314;2024-01-10T06:51:28;1.20;99.90
17715;DHT22;8977;50.902;4.314;2024-01-10T06:53:55;1.10;99.90
17715;DHT22;8977;50.902;4.314;2024-01-10T06:56:28;1.10;99.90
17715;DHT22;8977;50.902;4.314;2024-01-10T06:58:55;1.10;99.90
17715;DHT22;8977;50.902;4.314;2024-01-10T07:01:23;1.10;99.90
17715;DHT22;8977;50.902;4.314;2024-01-10T07:03:50;1.00;99.90
17715;DHT22;8977;50.902;4.314;2024-01-10T07:06:17;1.20;99.90
17715;DHT22;8977;50.902;4.314;2024-01-10T07:08:45;1.20;99.90
17715;DHT22;8977;50.902;4.314;2024-01-10T07:11:12;1.30;99.90
17715;DHT22;8977;50.902;4.314;2024-01-10T07:13:40;1.30;99.90
17715;DHT22;8977;50.902;4.314;2024-01-10T07:16:07;1.20;99.90
17715;DHT22;8977;50.902;4.314;2024-01-10T07:18:36;1.20;99.90
17715;DHT22;8977;50.902;4.314;2024-01-10T07:21:03;1.20;99.90
17715;DHT22;8977;50.902;4.314;2024-01-10T07:23:31;1.10;99.90
17715;DHT22;8977;50.902;4.314;2024-01-10T07:25:59;1.00;99.90
17715;DHT22;8977;50.902;4.314;2024-01-10T07:28:26;1.00;99.90
17715;DHT22;8977;50.902;4.314;2024-01-10T07:30:53;1.00;99.90
17715;DHT22;8977;50.902;4.314;2024-01-10T07:33:20;1.00;99.90
17715;DHT22;8977;50.902;4.314;2024-01-10T07:35:49;1.10;99.90
17715;DHT22;8977;50.902;4.314;2024-01-10T07:38:16;1.10;99.90
17715;DHT22;8977;50.902;4.314;2024-01-10T07:40:42;1.00;99.90
17715;DHT22;8977;50.902;4.314;2024-01-10T07:43:09;1.10;99.90
17715;DHT22;8977;50.902;4.314;2024-01-10T07:45:37;1.10;99.90
17715;DHT22;8977;50.902;4.314;2024-01-10T07:48:04;1.20;99.90
17715;DHT22;8977;50.902;4.314;2024-01-10T07:50:31;1.00;99.90
17715;DHT22;8977;50.902;4.314;2024-01-10T07:53:00;1.00;99.90
17715;DHT22;8977;50.902;4.314;2024-01-10T07:55:27;0.80;99.90
17715;DHT22;8977;50.902;4.314;2024-01-10T07:57:55;0.70;99.90
17715;DHT22;8977;50.902;4.314;2024-01-10T08:00:22;0.80;99.90
17715;DHT22;8977;50.902;4.314;2024-01-10T08:02:49;0.80;99.90
17715;DHT22;8977;50.902;4.314;2024-01-10T08:05:16;0.80;99.90
17715;DHT22;8977;50.902;4.314;2024-01-10T08:07:43;0.90;99.90
17715;DHT22;8977;50.902;4.314;2024-01-10T08:10:11;1.00;99.90
17715;DHT22;8977;50.902;4.314;2024-01-10T08:12:39;1.00;99.90
17715;DHT22;8977;50.902;4.314;2024-01-10T08:15:07;0.80;99.90
17715;DHT22;8977;50.902;4.314;2024-01-10T08:17:36;0.90;99.90
17715;DHT22;8977;50.902;4.314;2024-01-10T08:20:04;1.10;99.90
17715;DHT22;8977;50.902;4.314;2024-01-10T08:22:32;1.00;99.90
17715;DHT22;8977;50.902;4.314;2024-01-10T08:24:59;1.00;99.90
17715;DHT22;8977;50.902;4.314;2024-01-10T08:27:27;1.10;99.90
17715;DHT22;8977;50.902;4.314;2024-01-10T08:29:54;1.00;99.90
17715;DHT22;8977;50.902;4.314;2024-01-10T08:32:21;0.70;99.90
17715;DHT22;8977;50.902;4.314;2024-01-10T08:34:48;0.70;99.90
17715;DHT22;8977;50.902;4.314;2024-01-10T08:37:15;0.70;99.90
17715;DHT22;8977;50.902;4.314;2024-01-10T08:39:42;0.80;99.90
17715;DHT22;8977;50.902;4.314;2024-01-10T08:42:09;0.90;99.90
17715;DHT22;8977;50.902;4.314;2024-01-10T08:44:38;1.00;99.90
17715;DHT22;8977;50.902;4.314;2024-01-10T08:47:05;0.90;99.90
17715;DHT22;8977;50.902;4.314;2024-01-10T08:49:32;1.00;99.90
17715;DHT22;8977;50.902;4.314;2024-01-10T08:51:59;1.10;99.90
17715;DHT22;8977;50.902;4.314;2024-01-10T08:54:26;1.20;99.90
17715;DHT22;8977;50.902;4.314;2024-01-10T08:56:53;1.10;99.90
17715;DHT22;8977;50.902;4.314;2024-01-10T08:59:19;1.30;99.90
17715;DHT22;8977;50.902;4.314;2024-01-10T09:01:49;1.20;99.90
17715;DHT22;8977;50.902;4.314;2024-01-10T09:04:16;1.30;99.90
17715;DHT22;8977;50.902;4.314;2024-01-10T09:06:43;1.30;99.90
17715;DHT22;8977;50.902;4.314;2024-01-10T09:09:10;1.30;99.90
17715;DHT22;8977;50.902;4.314;2024-01-10T09:11:38;1.10;99.90
17715;DHT22;8977;50.902;4.314;2024-01-10T09:14:05;1.10;99.90
17715;DHT22;8977;50.902;4.314;2024-01-10T09:16:34;1.20;99.90
17715;DHT22;8977;50.902;4.314;2024-01-10T09:19:02;1.20;99.90
17715;DHT22;8977;50.902;4.314;2024-01-10T09:21:29;1.30;99.90
17715;DHT22;8977;50.902;4.314;2024-01-10T09:23:56;1.20;99.90
17715;DHT22;8977;50.902;4.314;2024-01-10T09:26:23;1.30;99.90
17715;DHT22;8977;50.902;4.314;2024-01-10T09:28:50;1.30;99.90
17715;DHT22;8977;50.902;4.314;2024-01-10T09:31:17;1.30;99.90
17715;DHT22;8977;50.902;4.314;2024-01-10T09:33:44;1.30;99.90
17715;DHT22;8977;50.902;4.314;2024-01-10T09:36:12;1.30;99.90
17715;DHT22;8977;50.902;4.314;2024-01-10T09:38:40;1.40;99.90
17715;DHT22;8977;50.902;4.314;2024-01-10T09:41:07;1.40;99.90
17715;DHT22;8977;50.902;4.314;2024-01-10T09:43:34;1.40;99.90
17715;DHT22;8977;50.902;4.314;2024-01-10T09:46:02;1.50;99.90
17715;DHT22;8977;50.902;4.314;2024-01-10T09:48:29;1.50;99.90
17715;DHT22;8977;50.902;4.314;2024-01-10T09:50:56;1.40;99.90
17715;DHT22;8977;50.902;4.314;2024-01-10T09:53:26;1.50;99.90
17715;DHT22;8977;50.902;4.314;2024-01-10T09:55:53;1.50;99.90
17715;DHT22;8977;50.902;4.314;2024-01-10T09:58:23;1.50;99.90
17715;DHT22;8977;50.902;4.314;2024-01-10T10:00:51;1.60;99.90
17715;DHT22;8977;50.902;4.314;2024-01-10T10:03:18;1.60;99.90
17715;DHT22;8977;50.902;4.314;2024-01-10T10:05:45;1.60;99.90
17715;DHT22;8977;50.902;4.314;2024-01-10T10:08:13;1.60;99.90
17715;DHT22;8977;50.902;4.314;2024-01-10T10:10:48;1.70;99.90
17715;DHT22;8977;50.902;4.314;2024-01-10T10:13:24;1.80;99.90
17715;DHT22;8977;50.902;4.314;2024-01-10T10:15:57;1.90;99.90
17715;DHT22;8977;50.902;4.314;2024-01-10T10:18:25;1.80;99.90
17715;DHT22;8977;50.902;4.314;2024-01-10T10:21:06;1.80;99.90
17715;DHT22;8977;50.902;4.314;2024-01-10T10:23:34;2.00;99.90
17715;DHT22;8977;50.902;4.314;2024-01-10T10:26:11;1.90;99.90
17715;DHT22;8977;50.902;4.314;2024-01-10T10:28:40;2.00;99.90
17715;DHT22;8977;50.902;4.314;2024-01-10T10:31:08;2.10;99.90
17715;DHT22;8977;50.902;4.314;2024-01-10T10:33:35;2.20;99.90
17715;DHT22;8977;50.902;4.314;2024-01-10T10:36:04;2.20;99.90
17715;DHT22;8977;50.902;4.314;2024-01-10T10:38:31;2.30;99.90
17715;DHT22;8977;50.902;4.314;2024-01-10T10:40:59;2.30;99.90
17715;DHT22;8977;50.902;4.314;2024-01-10T10:43:32;2.30;99.90
17715;DHT22;8977;50.902;4.314;2024-01-10T10:46:01;2.20;99.90
17715;DHT22;8977;50.902;4.314;2024-01-10T10:48:32;2.40;99.90
17715;DHT22;8977;50.902;4.314;2024-01-10T10:51:04;2.50;99.90
17715;DHT22;8977;50.902;4.314;2024-01-10T10:53:33;2.60;99.90
17715;DHT22;8977;50.902;4.314;2024-01-10T10:56:02;2.60;99.90
17715;DHT22;8977;50.902;4.314;2024-01-10T10:58:34;2.60;99.90
17715;DHT22;8977;50.902;4.314;2024-01-10T11:01:03;2.60;99.90
17715;DHT22;8977;50.902;4.314;2024-01-10T11:03:34;2.70;99.90
17715;DHT22;8977;50.902;4.314;2024-01-10T11:06:02;2.80;99.90
17715;DHT22;8977;50.902;4.314;2024-01-10T11:08:33;2.80;99.90
17715;DHT22;8977;50.902;4.314;2024-01-10T11:11:03;2.60;99.70
17715;DHT22;8977;50.902;4.314;2024-01-10T11:13:44;2.70;99.90
17715;DHT22;8977;50.902;4.314;2024-01-10T11:16:38;2.60;99.90
17715;DHT22;8977;50.902;4.314;2024-01-10T11:19:32;2.60;99.90
17715;DHT22;8977;50.902;4.314;2024-01-10T11:22:15;2.70;99.90
17715;DHT22;8977;50.902;4.314;2024-01-10T11:24:44;2.70;99.90
17715;DHT22;8977;50.902;4.314;2024-01-10T11:27:12;2.80;99.90
17715;DHT22;8977;50.902;4.314;2024-01-10T11:29:41;2.90;99.90
17715;DHT22;8977;50.902;4.314;2024-01-10T11:32:14;2.80;99.90
17715;DHT22;8977;50.902;4.314;2024-01-10T11:34:50;2.90;99.90
17715;DHT22;8977;50.902;4.314;2024-01-10T11:37:17;2.90;99.80
17715;DHT22;8977;50.902;4.314;2024-01-10T11:39:44;3.00;99.90
17715;DHT22;8977;50.902;4.314;2024-01-10T11:42:11;3.00;99.80
17715;DHT22;8977;50.902;4.314;2024-01-10T11:44:51;2.90;99.80
17715;DHT22;8977;50.902;4.314;2024-01-10T11:47:19;3.00;99.80
17715;DHT22;8977;50.902;4.314;2024-01-10T11:49:57;3.10;99.80
17715;DHT22;8977;50.902;4.314;2024-01-10T11:52:32;3.20;99.70
17715;DHT22;8977;50.902;4.314;2024-01-10T11:54:59;3.20;99.40
17715;DHT22;8977;50.902;4.314;2024-01-10T11:57:27;3.20;99.30
17715;DHT22;8977;50.902;4.314;2024-01-10T11:59:56;3.20;99.50
17715;DHT22;8977;50.902;4.314;2024-01-10T12:02:25;3.30;99.20
17715;DHT22;8977;50.902;4.314;2024-01-10T12:04:54;3.20;99.00
17715;DHT22;8977;50.902;4.314;2024-01-10T12:07:21;3.30;99.50
17715;DHT22;8977;50.902;4.314;2024-01-10T12:09:49;3.30;99.20
17715;DHT22;8977;50.902;4.314;2024-01-10T12:12:16;3.30;98.80
17715;DHT22;8977;50.902;4.314;2024-01-10T12:14:43;3.30;98.70
17715;DHT22;8977;50.902;4.314;2024-01-10T12:17:13;3.20;98.70
17715;DHT22;8977;50.902;4.314;2024-01-10T12:19:40;3.20;98.70
17715;DHT22;8977;50.902;4.314;2024-01-10T12:22:10;3.30;98.70
17715;DHT22;8977;50.902;4.314;2024-01-10T12:24:42;3.20;98.70
17715;DHT22;8977;50.902;4.314;2024-01-10T12:27:11;3.30;98.80
17715;DHT22;8977;50.902;4.314;2024-01-10T12:29:38;3.40;98.90
17715;DHT22;8977;50.902;4.314;2024-01-10T12:32:05;3.40;98.80
17715;DHT22;8977;50.902;4.314;2024-01-10T12:34:38;3.40;98.60
17715;DHT22;8977;50.902;4.314;2024-01-10T12:37:05;3.40;98.80
17715;DHT22;8977;50.902;4.314;2024-01-10T12:39:32;3.40;98.80
17715;DHT22;8977;50.902;4.314;2024-01-10T12:41:59;3.40;99.00
17715;DHT22;8977;50.902;4.314;2024-01-10T12:44:28;3.50;99.00
17715;DHT22;8977;50.902;4.314;2024-01-10T12:46:55;3.60;98.70
17715;DHT22;8977;50.902;4.314;2024-01-10T12:49:23;3.60;98.80
17715;DHT22;8977;50.902;4.314;2024-01-10T12:51:51;3.50;98.90
17715;DHT22;8977;50.902;4.314;2024-01-10T12:54:19;3.40;98.60
17715;DHT22;8977;50.902;4.314;2024-01-10T12:56:46;3.40;98.70
17715;DHT22;8977;50.902;4.314;2024-01-10T12:59:13;3.40;98.70
17715;DHT22;8977;50.902;4.314;2024-01-10T13:01:40;3.40;98.60
17715;DHT22;8977;50.902;4.314;2024-01-10T13:04:08;3.40;98.70
17715;DHT22;8977;50.902;4.314;2024-01-10T13:06:35;3.40;98.60
17715;DHT22;8977;50.902;4.314;2024-01-10T13:09:03;3.30;98.80
17715;DHT22;8977;50.902;4.314;2024-01-10T13:11:31;3.30;98.80
17715;DHT22;8977;50.902;4.314;2024-01-10T13:13:58;3.30;98.70
17715;DHT22;8977;50.902;4.314;2024-01-10T13:16:26;3.30;98.80
17715;DHT22;8977;50.902;4.314;2024-01-10T13:18:53;3.40;98.70
17715;DHT22;8977;50.902;4.314;2024-01-10T13:21:22;3.40;98.80
17715;DHT22;8977;50.902;4.314;2024-01-10T13:23:50;3.50;98.90
17715;DHT22;8977;50.902;4.314;2024-01-10T13:26:18;3.50;98.80
17715;DHT22;8977;50.902;4.314;2024-01-10T13:28:45;3.50;98.60
17715;DHT22;8977;50.902;4.314;2024-01-10T13:31:12;3.50;98.80
17715;DHT22;8977;50.902;4.314;2024-01-10T13:33:39;3.50;98.50
17715;DHT22;8977;50.902;4.314;2024-01-10T13:36:07;3.60;98.80
17715;DHT22;8977;50.902;4.314;2024-01-10T13:38:34;3.60;98.90
17715;DHT22;8977;50.902;4.314;2024-01-10T13:41:01;3.70;98.90
17715;DHT22;8977;50.902;4.314;2024-01-10T13:43:32;3.70;98.80
17715;DHT22;8977;50.902;4.314;2024-01-10T13:45:59;3.60;98.50
17715;DHT22;8977;50.902;4.314;2024-01-10T13:48:26;3.70;98.60
17715;DHT22;8977;50.902;4.314;2024-01-10T13:50:53;3.60;98.60
17715;DHT22;8977;50.902;4.314;2024-01-10T13:53:20;3.60;98.60
17715;DHT22;8977;50.902;4.314;2024-01-10T13:55:47;3.70;98.80
17715;DHT22;8977;50.902;4.314;2024-01-10T13:58:15;3.60;98.80
17715;DHT22;8977;50.902;4.314;2024-01-10T14:00:45;3.70;98.90
17715;DHT22;8977;50.902;4.314;2024-01-10T14:03:12;3.70;98.80
17715;DHT22;8977;50.902;4.314;2024-01-10T14:05:39;3.80;99.10
17715;DHT22;8977;50.902;4.314;2024-01-10T14:08:06;3.80;99.10
17715;DHT22;8977;50.902;4.314;2024-01-10T14:10:34;3.70;98.80
17715;DHT22;8977;50.902;4.314;2024-01-10T14:13:01;3.80;99.00
17715;DHT22;8977;50.902;4.314;2024-01-10T14:15:29;3.80;98.90
17715;DHT22;8977;50.902;4.314;2024-01-10T14:17:57;3.90;99.10
17715;DHT22;8977;50.902;4.314;2024-01-10T14:20:24;3.80;98.80
17715;DHT22;8977;50.902;4.314;2024-01-10T14:22:51;3.80;99.10
17715;DHT22;8977;50.902;4.314;2024-01-10T14:25:18;3.90;99.20
17715;DHT22;8977;50.902;4.314;2024-01-10T14:27:46;3.90;99.10
17715;DHT22;8977;50.902;4.314;2024-01-10T14:30:13;3.80;99.30
17715;DHT22;8977;50.902;4.314;2024-01-10T14:32:41;3.90;99.40
17715;DHT22;8977;50.902;4.314;2024-01-10T14:35:09;4.00;99.60
17715;DHT22;8977;50.902;4.314;2024-01-10T14:37:36;3.90;99.20
17715;DHT22;8977;50.902;4.314;2024-01-10T14:40:04;3.90;99.10
17715;DHT22;8977;50.902;4.314;2024-01-10T14:42:32;3.90;99.20
17715;DHT22;8977;50.902;4.314;2024-01-10T14:44:59;3.90;99.30
17715;DHT22;8977;50.902;4.314;2024-01-10T14:47:27;3.90;99.40
17715;DHT22;8977;50.902;4.314;2024-01-10T14:49:54;3.80;99.20
17715;DHT22;8977;50.902;4.314;2024-01-10T14:52:25;3.80;99.40
17715;DHT22;8977;50.902;4.314;2024-01-10T14:54:52;3.90;99.50
17715;DHT22;8977;50.902;4.314;2024-01-10T14:57:19;3.90;99.60
17715;DHT22;8977;50.902;4.314;2024-01-10T14:59:47;3.90;99.30
17715;DHT22;8977;50.902;4.314;2024-01-10T15:02:14;3.90;99.40
17715;DHT22;8977;50.902;4.314;2024-01-10T15:04:42;4.00;99.50
17715;DHT22;8977;50.902;4.314;2024-01-10T15:07:09;3.90;99.40
17715;DHT22;8977;50.902;4.314;2024-01-10T15:09:38;3.80;99.00
17715;DHT22;8977;50.902;4.314;2024-01-10T15:12:05;3.80;98.90
17715;DHT22;8977;50.902;4.314;2024-01-10T15:14:34;3.80;99.10
17715;DHT22;8977;50.902;4.314;2024-01-10T15:17:01;3.80;99.00
17715;DHT22;8977;50.902;4.314;2024-01-10T15:19:31;3.80;99.30
17715;DHT22;8977;50.902;4.314;2024-01-10T15:21:58;3.90;99.50
17715;DHT22;8977;50.902;4.314;2024-01-10T15:24:25;3.90;99.30
17715;DHT22;8977;50.902;4.314;2024-01-10T15:26:54;3.90;99.40
17715;DHT22;8977;50.902;4.314;2024-01-10T15:29:21;3.90;99.30
17715;DHT22;8977;50.902;4.314;2024-01-10T15:31:48;3.90;99.50
17715;DHT22;8977;50.902;4.314;2024-01-10T15:34:15;3.90;99.40
17715;DHT22;8977;50.902;4.314;2024-01-10T15:36:43;3.90;99.50
17715;DHT22;8977;50.902;4.314;2024-01-10T15:39:10;3.90;99.60
17715;DHT22;8977;50.902;4.314;2024-01-10T15:41:38;3.90;99.70
17715;DHT22;8977;50.902;4.314;2024-01-10T15:44:07;3.90;99.70
17715;DHT22;8977;50.902;4.314;2024-01-10T15:46:35;3.90;99.50
17715;DHT22;8977;50.902;4.314;2024-01-10T15:49:02;3.90;99.60
17715;DHT22;8977;50.902;4.314;2024-01-10T15:51:29;3.90;99.70
17715;DHT22;8977;50.902;4.314;2024-01-10T15:53:56;3.90;99.70
17715;DHT22;8977;50.902;4.314;2024-01-10T15:56:24;3.90;99.80
17715;DHT22;8977;50.902;4.314;2024-01-10T15:58:51;3.90;99.80
17715;DHT22;8977;50.902;4.314;2024-01-10T16:01:19;3.90;99.90
17715;DHT22;8977;50.902;4.314;2024-01-10T16:03:46;3.90;99.90
17715;DHT22;8977;50.902;4.314;2024-01-10T16:06:13;3.80;99.80